Time;durP1;ratioP1;P1;durP2;ratioP2;P2;SDS_P1;SDS_P2;PMS_P1;PMS_P2;Temp;Humidity;BMP_temperature;BMP_pressure;BME280_temperature;BME280_humidity;BME280_pressure;Samples;Min_cycle;Max_cycle;Signal;HPM_P1;HPM_P2
2021/04/10 04:02:45;;;;;;;11.48;5.65;;;5.30;99.90;;;;;;4914127;27;20248;-70
2021/04/10 04:05:12;;;;;;;8.27;6.38;;;5.40;99.90;;;;;;4917342;29;20217;-70
2021/04/10 04:07:38;;;;;;;7.93;5.57;;;5.40;99.90;;;;;;4916158;29;20255;-70
2021/04/10 04:10:06;;;;;;;10.43;5.10;;;5.40;99.90;;;;;;4915903;29;20239;-69
2021/04/10 04:12:32;;;;;;;8.82;5.78;;;5.40;99.90;;;;;;4897279;29;20246;-69
2021/04/10 04:14:59;;;;;;;8.45;5.18;;;5.40;99.90;;;;;;4897405;29;20214;-69
2021/04/10 04:17:25;;;;;;;10.02;5.88;;;5.40;99.90;;;;;;4897685;29;20267;-69
2021/04/10 04:19:52;;;;;;;7.78;5.10;;;5.40;99.90;;;;;;4897281;29;20207;-69
2021/04/10 04:22:18;;;;;;;8.23;5.68;;;5.40;99.90;;;;;;4897110;29;20238;-69
2021/04/10 04:24:44;;;;;;;6.57;5.32;;;5.40;99.90;;;;;;4897674;29;20221;-69
2021/04/10 04:27:10;;;;;;;7.85;5.68;;;5.40;99.90;;;;;;4897095;29;20255;-69
2021/04/10 04:29:36;;;;;;;7.63;5.07;;;5.40;99.90;;;;;;4897524;29;20243;-70
2021/04/10 04:32:03;;;;;;;9.98;5.88;;;5.40;99.90;;;;;;4897600;29;20691;-68
2021/04/10 04:34:29;;;;;;;13.13;5.68;;;5.50;99.90;;;;;;4899170;29;20279;-70
2021/04/10 04:36:56;;;;;;;7.45;5.60;;;5.50;99.90;;;;;;4899436;29;20219;-70
2021/04/10 04:39:22;;;;;;;7.10;5.35;;;5.40;99.90;;;;;;4900199;29;20750;-70
2021/04/10 04:41:48;;;;;;;7.55;5.90;;;5.40;99.90;;;;;;4898735;29;20227;-70
2021/04/10 04:44:15;;;;;;;5.80;5.18;;;5.40;99.90;;;;;;4899753;29;20215;-70
2021/04/10 04:46:41;;;;;;;11.20;5.03;;;5.40;99.90;;;;;;4899196;29;20774;-70
2021/04/10 04:49:07;;;;;;;7.00;5.18;;;5.40;99.90;;;;;;4898822;29;20223;-71
2021/04/10 04:51:33;;;;;;;8.40;4.75;;;5.40;99.90;;;;;;4898115;29;20219;-70
2021/04/10 04:54:00;;;;;;;5.47;4.97;;;5.40;99.90;;;;;;4898235;29;20211;-70
2021/04/10 04:56:26;;;;;;;7.18;5.80;;;5.40;99.90;;;;;;4896304;29;20214;-70
2021/04/10 04:58:53;;;;;;;6.78;4.35;;;5.50;99.90;;;;;;4896667;29;20230;-70
2021/04/10 05:01:19;;;;;;;7.15;4.60;;;5.50;99.90;;;;;;4897272;29;20303;-70
2021/04/10 05:03:45;;;;;;;5.53;4.93;;;5.50;99.90;;;;;;4897013;29;20226;-69
2021/04/10 05:06:11;;;;;;;9.52;4.50;;;5.50;99.90;;;;;;4895910;29;20263;-70
2021/04/10 05:08:37;;;;;;;8.48;5.65;;;5.50;99.90;;;;;;4896398;29;20207;-69
2021/04/10 05:11:04;;;;;;;7.43;4.80;;;5.60;99.90;;;;;;4896256;29;20263;-70
2021/04/10 05:13:31;;;;;;;7.30;4.85;;;5.60;99.90;;;;;;4895838;29;20215;-69
2021/04/10 05:15:57;;;;;;;8.82;5.35;;;5.60;99.90;;;;;;4896890;29;20644;-69
2021/04/10 05:18:23;;;;;;;7.22;4.93;;;5.60;99.90;;;;;;4896254;29;20278;-69
2021/04/10 05:20:50;;;;;;;9.15;5.35;;;5.60;99.90;;;;;;4898732;29;20550;-69
2021/04/10 05:23:20;;;;;;;11.13;5.25;;;5.70;99.90;;;;;;4900347;29;20571;-69
2021/04/10 05:25:46;;;;;;;8.68;4.82;;;5.80;99.90;;;;;;4900270;29;20218;-69
2021/04/10 05:28:13;;;;;;;6.57;5.13;;;5.80;99.90;;;;;;4900314;29;20207;-69
2021/04/10 05:30:40;;;;;;;11.40;5.20;;;5.80;99.90;;;;;;4900146;29;20234;-69
2021/04/10 05:33:06;;;;;;;12.00;5.25;;;5.80;99.90;;;;;;4900120;29;20219;-69
2021/04/10 05:35:32;;;;;;;9.35;4.75;;;5.90;99.90;;;;;;4900007;29;20279;-69
2021/04/10 05:37:58;;;;;;;9.15;5.80;;;5.90;99.90;;;;;;4899382;29;20231;-69
2021/04/10 05:40:25;;;;;;;10.18;5.13;;;5.90;99.90;;;;;;4900197;29;20207;-69
2021/04/10 05:42:51;;;;;;;12.63;4.63;;;5.90;99.90;;;;;;4899627;29;20211;-71
2021/04/10 05:45:18;;;;;;;15.48;5.30;;;5.90;99.90;;;;;;4900418;29;20215;-70
2021/04/10 05:47:44;;;;;;;11.23;4.70;;;5.90;99.90;;;;;;4900215;29;20203;-69
2021/04/10 05:50:11;;;;;;;5.68;4.75;;;5.90;99.90;;;;;;4899636;29;20572;-70
2021/04/10 05:52:38;;;;;;;6.65;3.75;;;6.00;99.90;;;;;;4899119;29;20644;-69
2021/04/10 05:55:05;;;;;;;4.82;3.63;;;6.00;99.90;;;;;;4900758;29;20593;-69
2021/04/10 05:57:32;;;;;;;13.30;4.70;;;6.00;99.90;;;;;;4899814;29;20255;-69
2021/04/10 05:59:58;;;;;;;10.82;4.40;;;6.00;99.90;;;;;;4899940;29;20223;-70
2021/04/10 06:02:25;;;;;;;7.88;4.05;;;6.00;99.90;;;;;;4899076;29;20283;-70
2021/04/10 06:04:51;;;;;;;9.45;4.70;;;6.10;99.90;;;;;;4899542;29;20648;-69
2021/04/10 06:07:18;;;;;;;11.07;4.57;;;6.10;99.90;;;;;;4899132;29;20247;-70
2021/04/10 06:09:44;;;;;;;6.93;4.45;;;6.10;99.90;;;;;;4899500;29;20219;-69
2021/04/10 06:12:11;;;;;;;11.90;5.07;;;6.00;99.90;;;;;;4899270;29;20230;-69
2021/04/10 06:14:37;;;;;;;5.53;3.47;;;5.90;99.90;;;;;;4899060;29;20208;-70
2021/04/10 06:17:03;;;;;;;8.40;4.13;;;6.00;99.90;;;;;;4899500;29;20216;-71
2021/04/10 06:19:31;;;;;;;5.95;4.60;;;5.90;99.90;;;;;;4899374;29;20260;-70
2021/04/10 06:21:57;;;;;;;4.38;3.20;;;6.00;99.90;;;;;;4898270;29;20248;-71
2021/04/10 06:24:23;;;;;;;6.25;3.70;;;6.00;99.90;;;;;;4899944;29;20238;-70
2021/04/10 06:26:49;;;;;;;4.00;3.50;;;6.00;99.90;;;;;;4899193;29;20208;-73
2021/04/10 06:29:15;;;;;;;3.80;3.40;;;6.10;99.90;;;;;;4899210;29;20279;-73
2021/04/10 06:31:42;;;;;;;5.88;3.72;;;6.10;99.90;;;;;;4898455;29;20250;-73
2021/04/10 06:34:08;;;;;;;7.00;2.95;;;6.00;99.90;;;;;;4899179;29;20589;-72
2021/04/10 06:36:36;;;;;;;4.22;3.22;;;6.10;99.90;;;;;;4899137;29;20223;-73
2021/04/10 06:39:03;;;;;;;5.40;2.60;;;6.10;99.90;;;;;;4899293;29;20234;-71
2021/04/10 06:41:29;;;;;;;5.45;3.25;;;6.10;99.90;;;;;;4899571;29;20227;-73
2021/04/10 06:43:57;;;;;;;3.50;2.47;;;6.20;99.90;;;;;;4899090;29;20254;-72
2021/04/10 06:46:24;;;;;;;3.90;2.83;;;6.20;99.90;;;;;;4899486;29;20203;-70
2021/04/10 06:48:52;;;;;;;8.00;4.20;;;6.10;99.90;;;;;;4899093;29;20234;-70
2021/04/10 06:51:21;;;;;;;6.57;2.65;;;6.20;99.90;;;;;;4898919;29;20266;-70
2021/04/10 06:53:49;;;;;;;3.80;2.53;;;6.30;99.90;;;;;;4899059;29;20211;-70
2021/04/10 06:56:19;;;;;;;4.38;2.10;;;6.30;99.90;;;;;;4899305;29;20211;-70
2021/04/10 06:58:56;;;;;;;3.80;2.03;;;6.30;99.90;;;;;;4898458;29;20227;-70
2021/04/10 07:01:22;;;;;;;2.55;2.35;;;6.30;99.90;;;;;;4898810;29;20603;-73
2021/04/10 07:03:51;;;;;;;2.85;1.60;;;6.40;99.90;;;;;;4898400;29;20274;-74
2021/04/10 07:06:17;;;;;;;5.05;1.80;;;6.30;99.90;;;;;;4898713;29;20216;-74
2021/04/10 07:08:44;;;;;;;4.70;2.40;;;6.30;99.90;;;;;;4898003;29;20457;-74
2021/04/10 07:11:12;;;;;;;7.38;3.55;;;6.20;99.90;;;;;;4898728;29;20231;-73
2021/04/10 07:13:39;;;;;;;6.22;2.55;;;6.20;99.90;;;;;;4897909;29;20684;-74
2021/04/10 07:16:06;;;;;;;4.10;1.80;;;6.10;99.90;;;;;;4898545;29;20211;-73
2021/04/10 07:18:32;;;;;;;7.95;1.67;;;6.20;99.90;;;;;;4898496;29;20649;-74
2021/04/10 07:21:14;;;;;;;6.68;2.20;;;6.10;99.90;;;;;;4898566;29;20334;-70
2021/04/10 07:23:49;;;;;;;7.35;1.90;;;6.30;99.90;;;;;;4896192;29;20207;-70
2021/04/10 07:26:19;;;;;;;4.57;1.77;;;6.20;99.90;;;;;;4898658;29;20240;-70
2021/04/10 07:28:46;;;;;;;7.28;2.00;;;6.30;99.90;;;;;;4897855;29;20211;-70
2021/04/10 07:31:14;;;;;;;1.98;1.80;;;6.40;99.90;;;;;;4898626;29;20242;-69
2021/04/10 07:33:42;;;;;;;3.97;2.10;;;6.50;99.90;;;;;;4895946;29;20219;-72
2021/04/10 07:36:10;;;;;;;7.60;1.90;;;6.60;99.90;;;;;;4897248;29;20674;-72
2021/04/10 07:38:38;;;;;;;4.95;2.30;;;6.60;99.90;;;;;;4897834;29;20468;-70
2021/04/10 07:41:16;;;;;;;4.20;2.10;;;6.60;99.90;;;;;;4897800;29;20227;-72
2021/04/10 07:43:43;;;;;;;4.97;1.70;;;6.60;99.90;;;;;;4894807;29;20255;-72
2021/04/10 07:46:18;;;;;;;7.22;2.22;;;6.70;99.90;;;;;;4897511;29;20213;-72
2021/04/10 07:49:06;;;;;;;6.40;2.75;;;6.80;99.90;;;;;;4897728;29;20206;-72
2021/04/10 07:51:33;;;;;;;7.38;3.30;;;7.00;99.90;;;;;;4897152;29;20235;-72
2021/04/10 07:54:00;;;;;;;2.83;2.30;;;7.10;99.90;;;;;;4897295;29;20214;-73
2021/04/10 07:56:27;;;;;;;10.77;5.15;;;7.20;99.90;;;;;;4897804;29;20502;-73
2021/04/10 07:59:01;;;;;;;9.48;3.58;;;7.20;99.90;;;;;;4894122;29;20726;-73
2021/04/10 08:01:27;;;;;;;5.90;3.13;;;7.30;99.90;;;;;;4897444;29;20239;-73
2021/04/10 08:03:57;;;;;;;14.50;4.25;;;7.30;99.90;;;;;;4896479;29;20264;-73
2021/04/10 08:06:30;;;;;;;9.13;3.50;;;7.30;99.90;;;;;;5128807;27;20537;-73
2021/04/10 08:08:57;;;;;;;6.60;3.13;;;7.30;99.90;;;;;;5129870;28;20199;-73
2021/04/10 08:11:32;;;;;;;10.73;3.42;;;7.40;99.90;;;;;;5116929;27;20640;-74
2021/04/10 08:14:01;;;;;;;1.55;1.45;;;7.40;99.90;;;;;;5108292;28;20203;-73
2021/04/10 08:16:27;;;;;;;3.65;1.45;;;7.50;99.90;;;;;;5109222;28;20235;-73
2021/04/10 08:18:55;;;;;;;3.53;1.80;;;7.50;99.90;;;;;;5094964;28;20222;-72
2021/04/10 08:21:36;;;;;;;5.88;1.50;;;7.70;99.90;;;;;;5105619;28;20225;-73
2021/04/10 08:24:22;;;;;;;4.50;2.58;;;7.80;99.90;;;;;;5104570;28;20199;-72
2021/04/10 08:26:49;;;;;;;2.83;2.53;;;8.00;99.90;;;;;;5108783;28;20211;-73
2021/04/10 08:29:15;;;;;;;3.80;1.92;;;8.20;99.90;;;;;;5108452;28;20208;-74
2021/04/10 08:31:41;;;;;;;3.92;2.00;;;8.20;99.90;;;;;;5089948;28;20710;-75
2021/04/10 08:34:07;;;;;;;7.43;1.40;;;8.20;99.90;;;;;;5106187;28;20208;-73
2021/04/10 08:36:36;;;;;;;2.15;1.85;;;8.30;99.90;;;;;;5108329;28;20212;-73
2021/04/10 08:39:03;;;;;;;7.38;1.73;;;8.30;99.90;;;;;;5106110;28;20224;-74
2021/04/10 08:41:31;;;;;;;4.55;1.90;;;8.30;99.90;;;;;;5102711;28;20320;-75
2021/04/10 08:43:59;;;;;;;1.80;1.75;;;8.40;99.90;;;;;;5106589;28;20667;-76
2021/04/10 08:46:28;;;;;;;5.82;2.13;;;8.40;99.90;;;;;;5110784;28;20227;-75
2021/04/10 08:48:56;;;;;;;2.47;1.35;;;8.40;99.90;;;;;;5111046;28;20197;-76
2021/04/10 08:51:24;;;;;;;2.35;1.25;;;8.40;99.90;;;;;;5109521;28;20227;-73
2021/04/10 08:53:53;;;;;;;3.22;1.95;;;8.50;99.90;;;;;;5110455;28;20208;-75
2021/04/10 08:56:24;;;;;;;4.43;1.65;;;8.60;99.90;;;;;;5108890;28;20211;-74
2021/04/10 08:58:50;;;;;;;3.10;1.83;;;8.80;99.90;;;;;;5109192;28;20284;-73
2021/04/10 09:01:18;;;;;;;2.47;1.80;;;8.80;99.90;;;;;;5109677;28;20220;-74
2021/04/10 09:03:52;;;;;;;3.75;1.85;;;8.90;99.90;;;;;;5108443;28;20684;-74
2021/04/10 09:06:48;;;;;;;5.15;1.58;;;9.10;99.90;;;;;;5110373;28;20297;-72
2021/04/10 09:09:32;;;;;;;6.55;1.80;;;9.20;99.90;;;;;;5112045;28;20296;-72
2021/04/10 09:12:21;;;;;;;7.30;1.60;;;9.10;99.90;;;;;;5108506;28;20232;-71
2021/04/10 09:14:49;;;;;;;3.13;1.35;;;9.00;99.90;;;;;;5112152;28;20196;-73
2021/04/10 09:17:16;;;;;;;4.32;1.60;;;8.90;99.90;;;;;;5098477;28;20200;-73
2021/04/10 09:19:42;;;;;;;1.85;1.55;;;9.00;99.90;;;;;;5093708;28;20201;-73
2021/04/10 09:22:15;;;;;;;3.63;2.33;;;9.10;99.90;;;;;;5092927;28;20220;-73
2021/04/10 09:24:43;;;;;;;1.25;1.15;;;9.10;99.90;;;;;;5074947;28;20229;-73
2021/04/10 09:27:19;;;;;;;3.72;1.58;;;9.00;99.90;;;;;;5092628;28;20201;-73
2021/04/10 09:29:51;;;;;;;3.92;1.70;;;9.00;99.90;;;;;;5087371;28;20623;-74
2021/04/10 09:32:38;;;;;;;4.40;1.67;;;9.00;99.90;;;;;;5094852;28;20266;-73
2021/04/10 09:35:10;;;;;;;2.58;1.50;;;9.10;99.90;;;;;;5104302;28;20223;-74
2021/04/10 09:38:01;;;;;;;6.68;1.85;;;9.20;99.90;;;;;;5102533;28;20211;-74
2021/04/10 09:40:49;;;;;;;4.35;2.03;;;9.30;99.90;;;;;;5104468;28;20224;-74
2021/04/10 09:43:19;;;;;;;3.55;2.00;;;9.20;99.90;;;;;;5093982;28;20204;-73
2021/04/10 09:45:46;;;;;;;3.50;2.08;;;9.20;99.90;;;;;;5092085;28;20232;-74
2021/04/10 09:48:20;;;;;;;3.65;1.45;;;9.20;99.90;;;;;;5095066;28;20219;-74
2021/04/10 09:51:06;;;;;;;2.28;1.48;;;9.30;99.90;;;;;;5089205;28;20228;-73
2021/04/10 09:53:34;;;;;;;2.88;1.70;;;9.60;99.90;;;;;;5094182;28;20287;-74
2021/04/10 09:56:08;;;;;;;2.65;1.80;;;9.60;99.90;;;;;;5094309;28;20216;-73
2021/04/10 09:58:37;;;;;;;4.28;1.55;;;9.70;99.90;;;;;;5093267;28;20563;-74
2021/04/10 10:01:09;;;;;;;1.40;1.30;;;9.50;99.90;;;;;;5094456;28;20224;-74
2021/04/10 10:03:36;;;;;;;2.08;1.30;;;9.50;99.90;;;;;;5094311;28;20211;-74
2021/04/10 10:06:02;;;;;;;3.42;1.60;;;9.50;99.90;;;;;;5092789;28;20231;-74
2021/04/10 10:08:32;;;;;;;4.13;1.75;;;9.60;99.90;;;;;;5095519;28;20214;-74
2021/04/10 10:11:00;;;;;;;9.07;1.90;;;9.60;99.90;;;;;;5094282;28;20241;-75
2021/04/10 10:13:30;;;;;;;7.57;2.38;;;9.60;99.90;;;;;;5094050;28;20253;-75
2021/04/10 10:15:58;;;;;;;2.08;1.45;;;9.60;99.90;;;;;;5094110;28;21030;-74
2021/04/10 10:18:27;;;;;;;2.47;1.50;;;9.50;99.90;;;;;;5094539;28;20215;-72
2021/04/10 10:20:58;;;;;;;4.18;1.60;;;9.60;99.90;;;;;;5093406;28;20223;-74
2021/04/10 10:23:26;;;;;;;4.35;2.10;;;9.90;99.90;;;;;;5093950;28;20212;-74
2021/04/10 10:25:52;;;;;;;1.85;1.70;;;10.10;99.90;;;;;;5093231;28;20220;-74
2021/04/10 10:28:19;;;;;;;3.42;1.75;;;10.20;99.90;;;;;;5092362;28;20208;-74
2021/04/10 10:30:47;;;;;;;5.05;2.00;;;10.40;99.90;;;;;;5093348;28;20216;-74
2021/04/10 10:33:14;;;;;;;4.60;2.10;;;10.50;99.90;;;;;;5092962;28;20209;-74
2021/04/10 10:35:50;;;;;;;4.55;1.70;;;10.40;99.90;;;;;;5093532;28;20616;-73
2021/04/10 10:38:17;;;;;;;2.63;1.77;;;10.20;99.90;;;;;;5092630;28;20261;-73
2021/04/10 10:40:48;;;;;;;4.53;2.30;;;10.30;99.90;;;;;;5092463;28;20992;-73
2021/04/10 10:43:16;;;;;;;5.15;2.03;;;10.40;99.90;;;;;;5092486;28;20479;-73
2021/04/10 10:45:47;;;;;;;3.47;1.95;;;10.40;99.90;;;;;;5093531;28;20225;-74
2021/04/10 10:48:16;;;;;;;3.60;2.00;;;10.30;99.90;;;;;;5093241;28;20660;-74
2021/04/10 10:50:42;;;;;;;3.63;1.70;;;10.30;99.90;;;;;;5092761;28;20712;-73
2021/04/10 10:53:12;;;;;;;2.20;1.75;;;10.20;99.90;;;;;;5093334;28;20204;-74
2021/04/10 10:55:57;;;;;;;2.35;1.90;;;10.20;99.90;;;;;;5092968;28;20239;-71
2021/04/10 10:58:24;;;;;;;2.83;2.22;;;10.20;99.90;;;;;;5092974;28;20687;-72
2021/04/10 11:00:50;;;;;;;4.68;1.80;;;10.20;99.90;;;;;;5093855;28;20700;-72
2021/04/10 11:03:21;;;;;;;2.38;1.80;;;10.20;99.90;;;;;;5093182;28;20205;-72
2021/04/10 11:05:49;;;;;;;1.90;1.88;;;10.10;99.90;;;;;;5092298;28;20220;-72
2021/04/10 11:08:17;;;;;;;2.85;1.50;;;10.30;99.90;;;;;;5093509;28;20200;-72
2021/04/10 11:10:44;;;;;;;2.17;1.75;;;10.30;99.90;;;;;;5092075;28;20224;-73
2021/04/10 11:13:11;;;;;;;1.85;1.48;;;10.30;99.90;;;;;;5092500;28;20625;-73
2021/04/10 11:15:38;;;;;;;3.78;1.80;;;10.30;99.90;;;;;;5093289;28;20208;-73
2021/04/10 11:18:05;;;;;;;7.65;1.92;;;10.30;99.90;;;;;;5093382;28;20295;-73
2021/04/10 11:20:34;;;;;;;3.60;1.88;;;10.20;99.90;;;;;;5092901;28;20688;-73
2021/04/10 11:23:05;;;;;;;1.75;1.65;;;10.10;99.90;;;;;;5094220;28;20205;-73
2021/04/10 11:25:46;;;;;;;3.63;1.80;;;10.00;99.90;;;;;;5092702;28;20688;-73
2021/04/10 11:28:26;;;;;;;4.18;1.52;;;10.20;99.90;;;;;;5093699;28;20751;-73
2021/04/10 11:31:03;;;;;;;3.15;2.85;;;10.40;99.90;;;;;;5093104;28;20743;-73
2021/04/10 11:33:34;;;;;;;10.27;4.32;;;10.50;99.90;;;;;;5092604;28;20226;-73
2021/04/10 11:36:01;;;;;;;2.15;2.00;;;10.60;99.90;;;;;;5092741;28;20227;-74
2021/04/10 11:38:27;;;;;;;6.13;3.88;;;10.70;99.90;;;;;;5092427;28;20215;-70
2021/04/10 11:40:53;;;;;;;3.17;1.92;;;10.80;99.90;;;;;;5091744;28;20224;-70
2021/04/10 11:43:19;;;;;;;1.90;1.80;;;10.90;99.60;;;;;;5091738;28;20205;-71
2021/04/10 11:45:47;;;;;;;5.13;1.92;;;10.80;99.20;;;;;;5092072;28;20219;-71
2021/04/10 11:48:16;;;;;;;2.78;1.70;;;10.90;98.70;;;;;;5092232;28;20208;-71
2021/04/10 11:50:47;;;;;;;1.30;1.30;;;11.00;98.10;;;;;;5091731;28;20684;-71
2021/04/10 11:53:18;;;;;;;4.63;2.38;;;10.90;97.60;;;;;;5092305;28;20189;-71
2021/04/10 11:55:44;;;;;;;3.83;1.80;;;11.10;97.70;;;;;;5092431;28;20197;-71
2021/04/10 11:58:10;;;;;;;1.20;1.10;;;11.20;97.30;;;;;;5092119;28;20208;-71
2021/04/10 12:00:36;;;;;;;2.30;1.55;;;11.00;96.20;;;;;;5092840;28;20351;-71
2021/04/10 12:03:09;;;;;;;3.97;1.90;;;10.90;96.20;;;;;;5092132;28;20212;-72
2021/04/10 12:05:40;;;;;;;1.88;1.55;;;10.70;96.90;;;;;;5091876;28;20314;-73
2021/04/10 12:08:08;;;;;;;1.65;1.42;;;10.70;96.70;;;;;;5092430;28;20208;-73
2021/04/10 12:10:37;;;;;;;3.17;1.80;;;10.70;96.70;;;;;;5091915;28;20220;-74
2021/04/10 12:13:04;;;;;;;4.78;1.40;;;10.90;96.70;;;;;;5091178;28;20211;-73
2021/04/10 12:15:32;;;;;;;2.55;1.25;;;10.90;96.30;;;;;;5091924;28;20291;-73
2021/04/10 12:17:58;;;;;;;2.13;1.65;;;10.70;96.80;;;;;;5091508;28;20308;-73
2021/04/10 12:20:25;;;;;;;1.75;1.65;;;10.40;95.60;;;;;;5092038;28;20208;-73
2021/04/10 12:22:52;;;;;;;1.70;1.60;;;10.30;96.30;;;;;;5090144;28;20200;-72
2021/04/10 12:25:18;;;;;;;2.60;1.35;;;10.30;96.40;;;;;;5091572;28;20224;-70
2021/04/10 12:27:45;;;;;;;1.50;1.50;;;10.40;96.60;;;;;;5089381;28;20258;-70
2021/04/10 12:30:13;;;;;;;1.38;1.35;;;10.50;96.00;;;;;;5091150;28;20197;-71
2021/04/10 12:32:39;;;;;;;2.70;1.35;;;10.60;95.60;;;;;;5090617;28;20203;-70
2021/04/10 12:35:06;;;;;;;3.15;1.80;;;10.60;96.70;;;;;;5091215;28;20219;-70
2021/04/10 12:37:33;;;;;;;1.58;1.45;;;10.70;96.90;;;;;;5090775;28;20207;-69
2021/04/10 12:39:59;;;;;;;1.40;1.40;;;11.00;95.60;;;;;;5091841;28;20197;-70
2021/04/10 12:42:25;;;;;;;3.08;1.52;;;11.10;95.00;;;;;;5091613;28;20231;-70
2021/04/10 12:44:52;;;;;;;4.13;1.77;;;11.20;95.70;;;;;;5091422;28;20243;-70
2021/04/10 12:47:20;;;;;;;2.45;1.20;;;11.20;96.20;;;;;;5091620;28;20208;-70
2021/04/10 12:49:48;;;;;;;1.58;1.20;;;11.00;96.10;;;;;;5091829;28;20204;-70
2021/04/10 12:52:14;;;;;;;1.40;1.10;;;10.90;95.30;;;;;;5093428;28;20213;-71
2021/04/10 12:54:40;;;;;;;1.98;1.35;;;10.90;95.50;;;;;;5095803;28;20205;-70
2021/04/10 12:57:07;;;;;;;1.67;1.33;;;11.10;94.90;;;;;;5095334;28;20210;-71
2021/04/10 12:59:34;;;;;;;2.25;1.65;;;11.10;94.80;;;;;;5094770;28;20570;-70
2021/04/10 13:02:01;;;;;;;2.30;1.80;;;11.20;95.00;;;;;;5095157;28;20228;-70
2021/04/10 13:04:28;;;;;;;1.20;1.20;;;11.30;95.90;;;;;;5095081;28;20266;-70
2021/04/10 13:06:55;;;;;;;2.70;1.75;;;11.30;95.50;;;;;;5094674;28;20284;-70
2021/04/10 13:09:21;;;;;;;1.92;1.77;;;11.30;95.50;;;;;;5095556;28;20289;-71
2021/04/10 13:11:47;;;;;;;5.88;1.65;;;11.20;95.30;;;;;;5095054;28;20240;-71
2021/04/10 13:14:14;;;;;;;2.47;1.10;;;11.20;96.20;;;;;;5094414;28;20200;-71
2021/04/10 13:16:40;;;;;;;6.88;1.90;;;11.20;95.90;;;;;;5095333;28;20562;-71
2021/04/10 13:19:07;;;;;;;2.25;2.08;;;11.20;95.70;;;;;;5095019;28;20307;-71
2021/04/10 13:21:33;;;;;;;5.03;1.17;;;11.10;95.20;;;;;;5094217;28;20228;-70
2021/04/10 13:24:00;;;;;;;3.05;1.77;;;11.20;95.50;;;;;;5094839;28;20497;-72
2021/04/10 13:26:26;;;;;;;1.70;1.60;;;11.40;95.60;;;;;;5094666;28;20232;-71
2021/04/10 13:28:52;;;;;;;1.30;1.15;;;11.30;94.70;;;;;;5094686;28;20204;-70
2021/04/10 13:31:19;;;;;;;4.25;1.45;;;11.20;95.20;;;;;;5094687;28;20582;-70
2021/04/10 13:33:45;;;;;;;3.47;1.50;;;11.20;94.60;;;;;;5094574;28;20210;-70
2021/04/10 13:36:12;;;;;;;1.67;1.50;;;11.20;94.60;;;;;;5093913;28;20192;-70
2021/04/10 13:38:38;;;;;;;1.67;1.48;;;11.30;95.20;;;;;;5094514;28;20204;-70
2021/04/10 13:41:04;;;;;;;5.85;1.75;;;11.60;95.90;;;;;;5095125;28;20315;-70
2021/04/10 13:43:31;;;;;;;3.88;1.58;;;11.60;95.00;;;;;;5094056;28;20248;-70
2021/04/10 13:45:57;;;;;;;3.38;1.50;;;11.60;94.40;;;;;;5094243;28;20301;-70
2021/04/10 13:48:24;;;;;;;1.88;1.48;;;11.60;94.30;;;;;;5094197;28;20208;-70
2021/04/10 13:50:50;;;;;;;4.13;1.60;;;11.50;95.10;;;;;;5093821;28;20224;-70
2021/04/10 13:53:18;;;;;;;3.20;1.70;;;11.40;95.50;;;;;;5093794;28;20201;-70
2021/04/10 13:55:45;;;;;;;2.00;1.63;;;11.20;95.70;;;;;;5098353;28;20197;-72
2021/04/10 13:58:11;;;;;;;2.25;2.05;;;11.20;95.50;;;;;;5098771;28;20209;-72
2021/04/10 14:00:38;;;;;;;2.38;1.20;;;11.30;96.20;;;;;;5098625;28;20225;-72
2021/04/10 14:03:04;;;;;;;2.35;1.40;;;11.20;95.00;;;;;;5098389;28;20266;-73
2021/04/10 14:05:33;;;;;;;1.45;1.35;;;11.20;95.40;;;;;;5098548;28;20228;-71
2021/04/10 14:07:59;;;;;;;3.95;1.70;;;11.10;95.20;;;;;;5097040;28;20277;-72
2021/04/10 14:10:26;;;;;;;1.95;1.60;;;11.20;95.80;;;;;;5095012;28;20223;-72
2021/04/10 14:12:53;;;;;;;3.53;1.45;;;11.10;95.30;;;;;;5094211;28;20204;-72
2021/04/10 14:15:22;;;;;;;2.38;2.15;;;11.20;96.00;;;;;;5094470;28;20353;-72
2021/04/10 14:17:49;;;;;;;1.98;1.80;;;11.10;95.60;;;;;;5095366;28;20205;-71
2021/04/10 14:20:18;;;;;;;3.90;2.20;;;11.10;96.10;;;;;;5095657;28;20216;-70
2021/04/10 14:22:45;;;;;;;1.73;1.63;;;11.10;96.50;;;;;;5073861;28;20553;-72
2021/04/10 14:25:15;;;;;;;2.05;1.85;;;11.00;96.10;;;;;;5073459;28;20279;-70
2021/04/10 14:27:41;;;;;;;2.70;1.85;;;10.90;96.60;;;;;;5073929;28;20205;-70
2021/04/10 14:30:13;;;;;;;2.78;1.75;;;10.90;96.80;;;;;;5073133;28;20544;-69
2021/04/10 14:32:39;;;;;;;1.88;1.80;;;10.80;96.90;;;;;;5073596;28;20570;-69
2021/04/10 14:35:07;;;;;;;1.90;1.42;;;10.80;97.10;;;;;;5094337;28;20211;-69
2021/04/10 14:37:33;;;;;;;3.67;1.70;;;10.90;97.10;;;;;;5099589;28;20574;-69
2021/04/10 14:40:00;;;;;;;1.95;1.50;;;10.90;96.90;;;;;;5093799;28;20197;-69
2021/04/10 14:42:26;;;;;;;2.92;2.03;;;10.80;97.10;;;;;;5093786;28;20261;-70
2021/04/10 14:44:52;;;;;;;2.88;1.73;;;10.80;97.50;;;;;;5093226;28;20204;-69
2021/04/10 14:47:18;;;;;;;5.40;2.30;;;10.70;97.30;;;;;;5093222;28;20682;-69
2021/04/10 14:49:44;;;;;;;2.40;1.40;;;10.80;97.70;;;;;;5092530;28;20252;-69
2021/04/10 14:52:11;;;;;;;2.92;2.05;;;10.80;97.60;;;;;;5092069;28;20216;-70
2021/04/10 14:54:37;;;;;;;4.65;2.15;;;10.80;97.50;;;;;;5092916;28;20204;-69
2021/04/10 14:57:04;;;;;;;1.70;1.60;;;10.80;97.20;;;;;;5093162;28;20197;-69
2021/04/10 14:59:30;;;;;;;1.55;1.45;;;10.80;97.00;;;;;;5092473;28;20200;-69
2021/04/10 15:01:57;;;;;;;1.65;1.33;;;10.80;97.10;;;;;;5093170;28;20212;-69
2021/04/10 15:04:23;;;;;;;3.67;2.05;;;10.80;97.10;;;;;;5092314;28;20568;-70
2021/04/10 15:06:49;;;;;;;2.83;1.73;;;10.90;97.40;;;;;;5091194;28;20302;-70
2021/04/10 15:09:15;;;;;;;4.10;2.00;;;10.90;97.40;;;;;;5092950;28;20205;-70
2021/04/10 15:11:41;;;;;;;1.83;1.80;;;11.00;97.40;;;;;;5092196;28;20227;-70
2021/04/10 15:14:09;;;;;;;2.05;1.30;;;10.90;97.20;;;;;;5091276;28;20201;-70
2021/04/10 15:16:37;;;;;;;3.70;1.30;;;10.90;97.60;;;;;;5092423;28;20193;-70
2021/04/10 15:19:06;;;;;;;5.13;1.77;;;10.80;97.10;;;;;;5092381;28;20295;-70
2021/04/10 15:21:33;;;;;;;3.75;1.70;;;10.70;97.20;;;;;;5092320;28;20628;-70
2021/04/10 15:24:00;;;;;;;6.40;1.80;;;10.70;97.10;;;;;;5092353;28;20272;-71
2021/04/10 15:26:26;;;;;;;1.50;1.40;;;10.60;97.20;;;;;;5092326;28;20281;-70
2021/04/10 15:28:52;;;;;;;2.25;1.70;;;10.50;97.30;;;;;;5092303;28;20200;-71
2021/04/10 15:31:20;;;;;;;3.60;1.95;;;10.50;98.00;;;;;;5090285;28;20231;-71
2021/04/10 15:33:48;;;;;;;2.35;1.45;;;10.50;98.10;;;;;;5091880;28;20573;-71
2021/04/10 15:36:15;;;;;;;7.43;3.78;;;10.50;98.10;;;;;;5091104;28;20207;-70
2021/04/10 15:38:43;;;;;;;3.50;1.85;;;10.50;98.50;;;;;;5092110;28;20205;-70
2021/04/10 15:41:11;;;;;;;5.28;2.50;;;10.40;98.30;;;;;;5089145;28;20723;-71
2021/04/10 15:43:37;;;;;;;1.45;1.35;;;10.40;98.80;;;;;;5089403;28;20209;-70
2021/04/10 15:46:04;;;;;;;2.13;1.63;;;10.40;98.70;;;;;;5088413;28;20221;-69
2021/04/10 15:48:31;;;;;;;3.45;2.50;;;10.40;98.40;;;;;;5092275;28;20282;-69
2021/04/10 15:50:57;;;;;;;2.15;1.67;;;10.30;98.90;;;;;;5091577;28;20674;-69
2021/04/10 15:53:25;;;;;;;2.90;1.85;;;10.20;99.10;;;;;;5092003;28;20200;-70
2021/04/10 15:55:52;;;;;;;4.22;1.85;;;10.20;99.00;;;;;;5092302;28;20273;-70
2021/04/10 15:58:18;;;;;;;2.78;2.58;;;10.20;99.50;;;;;;5091979;28;20245;-70
2021/04/10 16:00:44;;;;;;;3.78;2.00;;;10.10;99.60;;;;;;5092039;28;20217;-70
2021/04/10 16:03:10;;;;;;;1.98;1.80;;;10.20;99.70;;;;;;5085728;28;20205;-70
2021/04/10 16:05:38;;;;;;;5.30;2.67;;;10.10;99.90;;;;;;5088627;28;20225;-70
2021/04/10 16:08:05;;;;;;;3.13;2.10;;;10.10;99.90;;;;;;5085660;28;20220;-70
2021/04/10 16:10:31;;;;;;;5.78;4.07;;;10.00;99.70;;;;;;5087839;28;20652;-71
2021/04/10 16:12:58;;;;;;;1.80;1.77;;;10.00;99.90;;;;;;5089793;28;20573;-71
2021/04/10 16:15:24;;;;;;;2.20;2.10;;;10.00;99.80;;;;;;5091956;27;20212;-70
2021/04/10 16:17:51;;;;;;;1.58;1.55;;;10.00;99.90;;;;;;5072745;28;20205;-70
2021/04/10 16:20:17;;;;;;;6.00;1.83;;;10.00;99.90;;;;;;5091755;28;20212;-70
2021/04/10 16:22:44;;;;;;;2.78;1.70;;;9.90;99.90;;;;;;5090661;28;20208;-70
2021/04/10 16:25:12;;;;;;;2.03;1.80;;;10.00;99.90;;;;;;5080126;28;20319;-71
2021/04/10 16:27:39;;;;;;;5.78;1.73;;;10.00;99.90;;;;;;5088466;28;20227;-71
2021/04/10 16:30:07;;;;;;;2.22;2.08;;;10.00;99.90;;;;;;5095098;28;20189;-71
2021/04/10 16:32:33;;;;;;;2.75;1.75;;;10.00;99.90;;;;;;5088526;28;20200;-70
2021/04/10 16:35:00;;;;;;;2.20;2.10;;;10.00;99.90;;;;;;5094161;28;20208;-70
2021/04/10 16:37:26;;;;;;;2.55;1.83;;;9.90;99.90;;;;;;5094239;28;20675;-70
2021/04/10 16:39:53;;;;;;;2.58;1.63;;;9.90;99.90;;;;;;5094771;28;20227;-70
2021/04/10 16:42:20;;;;;;;3.38;1.50;;;9.90;99.90;;;;;;5092348;28;20228;-69
2021/04/10 16:44:46;;;;;;;2.03;1.92;;;9.90;99.90;;;;;;5094764;28;20567;-70
2021/04/10 16:47:12;;;;;;;1.85;1.70;;;9.90;99.90;;;;;;5093616;28;20235;-70
2021/04/10 16:49:39;;;;;;;5.00;1.90;;;9.90;99.90;;;;;;5094469;28;20265;-70
2021/04/10 16:52:06;;;;;;;6.30;2.25;;;9.80;99.90;;;;;;5093650;28;20630;-70
2021/04/10 16:54:32;;;;;;;2.03;1.88;;;9.80;99.90;;;;;;5094686;28;20232;-70
2021/04/10 16:56:59;;;;;;;3.20;1.80;;;9.80;99.90;;;;;;5095435;28;20219;-69